Time;durP1;ratioP1;P1;durP2;ratioP2;P2;SDS_P1;SDS_P2;PMS_P1;PMS_P2;Temp;Humidity;BMP_temperature;BMP_pressure;BME280_temperature;BME280_humidity;BME280_pressure;Samples;Min_cycle;Max_cycle;Signal;HPM_P1;HPM_P2
2022/08/22 00:05:08;;;;;;;12.20;1.48;;;;;;;;;;10453687;28;20046;-60
2022/08/22 00:11:13;;;;;;;12.00;1.63;;;;;;;;;;10435446;28;20389;-61
2022/08/22 00:16:24;;;;;;;3.95;1.20;;;;;;;;;;10416364;28;20479;-61
2022/08/22 00:21:35;;;;;;;6.68;1.25;;;;;;;;;;10444124;28;20025;-61
2022/08/22 00:26:56;;;;;;;4.93;1.38;;;;;;;;;;10465408;28;20452;-60
2022/08/22 00:32:38;;;;;;;1.65;0.82;;;;;;;;;;10448620;28;20044;-61
2022/08/22 00:37:55;;;;;;;4.38;1.10;;;;;;;;;;10443954;28;20029;-60
2022/08/22 00:43:42;;;;;;;5.60;1.10;;;;;;;;;;10451940;28;20025;-61
2022/08/22 00:49:15;;;;;;;3.27;1.10;;;;;;;;;;10450114;28;20091;-60
2022/08/22 00:54:40;;;;;;;6.90;1.23;;;;;;;;;;10450307;28;20290;-61
2022/08/22 00:59:50;;;;;;;5.63;1.10;;;;;;;;;;10437645;28;20699;-59
2022/08/22 01:05:45;;;;;;;8.32;0.90;;;;;;;;;;10453792;28;20041;-60
2022/08/22 01:11:28;;;;;;;5.50;1.02;;;;;;;;;;10409614;28;20118;-59
2022/08/22 01:16:34;;;;;;;2.45;1.17;;;;;;;;;;10447608;28;20043;-57
2022/08/22 01:22:17;;;;;;;5.40;1.10;;;;;;;;;;10446076;28;20108;-48
2022/08/22 01:28:27;;;;;;;4.35;1.20;;;;;;;;;;10444918;28;20025;-47
2022/08/22 01:34:14;;;;;;;5.95;1.00;;;;;;;;;;10440641;28;20457;-48
2022/08/22 01:39:24;;;;;;;;;;;;;;;;;;10443877;28;20029;-50
2022/08/22 01:44:47;;;;;;;3.58;1.15;;;;;;;;;;10443389;28;20015;-60
2022/08/22 01:50:08;;;;;;;5.90;1.10;;;;;;;;;;10425456;28;20033;-57
2022/08/22 01:55:43;;;;;;;3.58;0.95;;;;;;;;;;10440262;28;20414;-60
2022/08/22 02:01:25;;;;;;;2.08;0.80;;;;;;;;;;10430232;28;20069;-61
2022/08/22 02:06:41;;;;;;;5.45;1.10;;;;;;;;;;10436043;28;20048;-60
2022/08/22 02:11:55;;;;;;;4.05;1.25;;;;;;;;;;10452107;28;20048;-56
2022/08/22 02:17:14;;;;;;;3.47;1.00;;;;;;;;;;10452657;28;20033;-56
2022/08/22 02:22:33;;;;;;;2.97;0.98;;;;;;;;;;10444863;28;20079;-58
2022/08/22 02:27:59;;;;;;;3.70;1.15;;;;;;;;;;10442597;28;20021;-58
2022/08/22 02:33:40;;;;;;;3.90;1.02;;;;;;;;;;10452557;28;20087;-60
2022/08/22 02:39:20;;;;;;;5.80;1.17;;;;;;;;;;10427044;28;20513;-58
2022/08/22 02:44:35;;;;;;;3.35;0.80;;;;;;;;;;10441661;28;20432;-61
2022/08/22 02:49:50;;;;;;;4.72;1.02;;;;;;;;;;10449124;28;20051;-59
2022/08/22 02:55:07;;;;;;;6.50;1.00;;;;;;;;;;10443727;28;20059;-58
2022/08/22 03:00:41;;;;;;;4.85;1.10;;;;;;;;;;10442314;28;20392;-58
2022/08/22 03:05:42;;;;;;;5.38;1.00;;;;;;;;;;10413718;28;20117;-50
2022/08/22 03:10:56;;;;;;;4.15;0.77;;;;;;;;;;10446810;28;20045;-49
2022/08/22 03:16:12;;;;;;;7.38;1.30;;;;;;;;;;10437859;28;20040;-50
2022/08/22 03:21:41;;;;;;;2.35;1.02;;;;;;;;;;10443973;28;20048;-49
2022/08/22 03:27:00;;;;;;;3.63;0.90;;;;;;;;;;10445313;28;20025;-51
2022/08/22 03:32:19;;;;;;;6.45;1.30;;;;;;;;;;10441549;28;20044;-55
2022/08/22 03:37:41;;;;;;;4.78;0.88;;;;;;;;;;10437628;28;20214;-50
2022/08/22 03:42:54;;;;;;;3.70;1.02;;;;;;;;;;10439644;28;20040;-48
2022/08/22 03:48:47;;;;;;;2.15;0.98;;;;;;;;;;10432979;28;20113;-49
2022/08/22 03:54:18;;;;;;;2.63;0.80;;;;;;;;;;10411806;28;20069;-48
2022/08/22 03:59:42;;;;;;;3.15;0.90;;;;;;;;;;10436167;28;20041;-58
2022/08/22 04:04:51;;;;;;;5.35;1.10;;;;;;;;;;10436315;28;20045;-58
2022/08/22 04:10:20;;;;;;;2.08;0.88;;;;;;;;;;10444331;28;20056;-56
2022/08/22 04:16:11;;;;;;;6.38;1.05;;;;;;;;;;10438287;28;20386;-58
2022/08/22 04:22:12;;;;;;;1.90;0.90;;;;;;;;;;10433871;28;20033;-55
2022/08/22 04:27:26;;;;;;;1.85;1.02;;;;;;;;;;10435816;28;20055;-59
2022/08/22 04:32:55;;;;;;;3.95;0.80;;;;;;;;;;10434095;28;20021;-59
2022/08/22 04:38:48;;;;;;;6.72;1.08;;;;;;;;;;10430811;28;20465;-56
2022/08/22 04:43:57;;;;;;;2.80;0.90;;;;;;;;;;10375738;28;20045;-58
2022/08/22 04:49:06;;;;;;;6.95;0.95;;;;;;;;;;10461924;28;20028;-57
2022/08/22 04:54:22;;;;;;;2.85;0.70;;;;;;;;;;10460511;28;20044;-59
2022/08/22 04:59:24;;;;;;;3.28;0.90;;;;;;;;;;10438984;28;20071;-48
2022/08/22 05:04:30;;;;;;;5.50;0.85;;;;;;;;;;10444841;28;20040;-55
2022/08/22 05:09:36;;;;;;;1.88;0.80;;;;;;;;;;10445431;28;20037;-56
2022/08/22 05:14:54;;;;;;;5.45;1.00;;;;;;;;;;10436940;28;20029;-58
2022/08/22 05:20:00;;;;;;;3.10;1.63;;;;;;;;;;10471204;28;20033;-58
2022/08/22 05:25:10;;;;;;;3.70;1.40;;;;;;;;;;10461390;28;20483;-57
2022/08/22 05:30:17;;;;;;;1.08;0.98;;;;;;;;;;10454511;28;20024;-58
2022/08/22 05:35:36;;;;;;;2.30;1.02;;;;;;;;;;10371514;28;20154;-57
2022/08/22 05:40:37;;;;;;;3.38;1.00;;;;;;;;;;10359686;28;20036;-57
2022/08/22 05:45:43;;;;;;;4.05;1.10;;;;;;;;;;10399128;28;20041;-60
2022/08/22 05:50:52;;;;;;;3.72;1.15;;;;;;;;;;10437455;28;20033;-62
2022/08/22 05:56:03;;;;;;;1.95;0.88;;;;;;;;;;10440155;28;20033;-60
2022/08/22 06:01:32;;;;;;;1.83;1.15;;;;;;;;;;10465579;28;20028;-61
2022/08/22 06:07:13;;;;;;;8.30;0.98;;;;;;;;;;10446582;28;20071;-59
2022/08/22 06:12:18;;;;;;;3.25;1.30;;;;;;;;;;10438136;28;20049;-60
2022/08/22 06:17:30;;;;;;;3.53;1.10;;;;;;;;;;10470535;28;20522;-60
2022/08/22 06:22:39;;;;;;;4.80;1.13;;;;;;;;;;10457163;28;20465;-59
2022/08/22 06:27:41;;;;;;;1.95;1.20;;;;;;;;;;10453606;28;20033;-59
2022/08/22 06:32:59;;;;;;;2.83;1.10;;;;;;;;;;10453190;28;20036;-59
2022/08/22 06:38:00;;;;;;;1.27;1.00;;;;;;;;;;10466586;28;20025;-59
2022/08/22 06:43:01;;;;;;;5.22;1.10;;;;;;;;;;10459790;28;20047;-60
2022/08/22 06:48:04;;;;;;;4.28;1.27;;;;;;;;;;10453383;28;20013;-60
2022/08/22 06:53:27;;;;;;;4.60;1.20;;;;;;;;;;10452443;28;20476;-59
2022/08/22 06:58:38;;;;;;;2.72;1.30;;;;;;;;;;10452095;28;20056;-60
2022/08/22 07:03:45;;;;;;;4.10;1.25;;;;;;;;;;10450227;28;20492;-61
2022/08/22 07:08:52;;;;;;;3.47;1.35;;;;;;;;;;10449083;28;20197;-60
2022/08/22 07:14:04;;;;;;;2.40;1.13;;;;;;;;;;10451431;28;20043;-60
2022/08/22 07:19:06;;;;;;;2.05;1.10;;;;;;;;;;10448175;28;20040;-57
2022/08/22 07:24:08;;;;;;;2.42;1.13;;;;;;;;;;10450886;28;20024;-60
2022/08/22 07:29:32;;;;;;;2.35;1.02;;;;;;;;;;10432179;28;20082;-60
2022/08/22 07:34:48;;;;;;;1.52;0.90;;;;;;;;;;10442835;28;20081;-60
2022/08/22 07:40:21;;;;;;;4.18;1.17;;;;;;;;;;10434493;28;20037;-60
2022/08/22 07:45:52;;;;;;;2.60;1.10;;;;;;;;;;10435084;28;20083;-60
2022/08/22 07:51:04;;;;;;;1.67;1.10;;;;;;;;;;10446948;28;20044;-59
2022/08/22 07:56:19;;;;;;;1.30;0.80;;;;;;;;;;10446852;28;20025;-60
2022/08/22 08:01:22;;;;;;;1.80;1.00;;;;;;;;;;10439219;28;20029;-60
2022/08/22 08:06:25;;;;;;;2.10;1.10;;;;;;;;;;10438339;28;20037;-61
2022/08/22 08:11:33;;;;;;;1.45;0.95;;;;;;;;;;10429189;28;20263;-60
2022/08/22 08:17:01;;;;;;;1.10;1.00;;;;;;;;;;10436942;28;20037;-59
2022/08/22 08:22:03;;;;;;;1.75;1.15;;;;;;;;;;10441504;28;20028;-60
2022/08/22 08:32:36;;;;;;;1.58;0.93;;;;;;;;;;10448398;28;20029;-60
2022/08/22 08:37:48;;;;;;;1.83;0.90;;;;;;;;;;10459863;28;20124;-60
2022/08/22 08:43:28;;;;;;;1.30;0.90;;;;;;;;;;10447434;28;20036;-60
2022/08/22 08:49:01;;;;;;;1.48;1.15;;;;;;;;;;10469673;28;20029;-60
2022/08/22 08:54:08;;;;;;;1.45;1.00;;;;;;;;;;10442643;28;20072;-60
2022/08/22 08:59:30;;;;;;;0.95;0.70;;;;;;;;;;10457125;28;20580;-59
2022/08/22 09:05:04;;;;;;;3.95;0.95;;;;;;;;;;10441426;28;20448;-60
2022/08/22 09:10:39;;;;;;;1.05;0.88;;;;;;;;;;10452022;28;20055;-60
2022/08/22 09:16:32;;;;;;;0.80;0.80;;;;;;;;;;10453810;28;20060;-60
2022/08/22 09:22:21;;;;;;;1.73;0.90;;;;;;;;;;10445290;28;20025;-60
2022/08/22 09:27:47;;;;;;;2.20;0.80;;;;;;;;;;10450126;28;20484;-56
2022/08/22 09:32:57;;;;;;;1.83;1.00;;;;;;;;;;10453964;28;20070;-60
2022/08/22 09:38:21;;;;;;;2.95;0.80;;;;;;;;;;10452926;28;20041;-59
2022/08/22 09:44:15;;;;;;;1.17;1.00;;;;;;;;;;10451518;28;20032;-57
2022/08/22 09:49:31;;;;;;;2.45;0.93;;;;;;;;;;10459873;28;20380;-60
2022/08/22 09:55:19;;;;;;;1.08;0.88;;;;;;;;;;10446075;28;20033;-60
2022/08/22 10:00:56;;;;;;;1.17;1.00;;;;;;;;;;10445711;28;20028;-60
2022/08/22 10:06:10;;;;;;;0.77;0.77;;;;;;;;;;10445381;28;20040;-56
2022/08/22 10:11:29;;;;;;;1.48;0.93;;;;;;;;;;10445388;28;20029;-60
2022/08/22 10:16:56;;;;;;;1.92;1.10;;;;;;;;;;10451672;28;20045;-61
2022/08/22 10:22:06;;;;;;;;;;;;;;;;;;10453243;28;20500;-61
2022/08/22 10:27:18;;;;;;;2.78;1.15;;;;;;;;;;10450412;28;20015;-58
2022/08/22 10:33:02;;;;;;;1.23;1.00;;;;;;;;;;10451574;28;20032;-59
2022/08/22 10:38:21;;;;;;;1.05;0.90;;;;;;;;;;10440258;28;20094;-61
2022/08/22 10:43:58;;;;;;;0.70;0.70;;;;;;;;;;10460443;28;20025;-60
2022/08/22 10:49:04;;;;;;;2.85;1.20;;;;;;;;;;10436106;28;20045;-60
2022/08/22 10:54:34;;;;;;;1.42;0.75;;;;;;;;;;10456413;28;20037;-61
2022/08/22 10:59:52;;;;;;;1.73;0.95;;;;;;;;;;10449755;28;20453;-60
2022/08/22 11:05:17;;;;;;;1.40;1.10;;;;;;;;;;10452634;28;20037;-61
2022/08/22 11:10:23;;;;;;;1.08;0.80;;;;;;;;;;10456930;28;20028;-60
2022/08/22 11:15:55;;;;;;;1.95;0.90;;;;;;;;;;10456090;28;20490;-60
2022/08/22 11:21:14;;;;;;;1.88;0.80;;;;;;;;;;10459771;28;20025;-60
2022/08/22 11:26:42;;;;;;;0.90;0.90;;;;;;;;;;10461036;28;20057;-60
2022/08/22 11:31:52;;;;;;;;;;;;;;;;;;10453487;28;20043;-61
2022/08/22 11:37:03;;;;;;;2.25;1.10;;;;;;;;;;10461538;28;19920;-60
2022/08/22 11:42:31;;;;;;;0.70;0.70;;;;;;;;;;10441437;28;20032;-60
2022/08/22 11:48:03;;;;;;;3.58;1.30;;;;;;;;;;10449789;28;20119;-60
2022/08/22 11:53:38;;;;;;;1.27;1.02;;;;;;;;;;10446670;28;20124;-60
2022/08/22 11:59:12;;;;;;;0.80;0.70;;;;;;;;;;10448395;28;20036;-60
2022/08/22 12:04:19;;;;;;;2.40;0.88;;;;;;;;;;10447452;28;20155;-61
2022/08/22 12:09:37;;;;;;;1.15;1.00;;;;;;;;;;10449224;28;20025;-61
2022/08/22 12:14:50;;;;;;;2.22;1.10;;;;;;;;;;10446582;28;20086;-61
2022/08/22 12:20:36;;;;;;;2.03;0.82;;;;;;;;;;10447323;28;20040;-60
2022/08/22 12:26:04;;;;;;;1.58;0.80;;;;;;;;;;10447871;28;20120;-60
2022/08/22 12:31:15;;;;;;;4.05;1.05;;;;;;;;;;10448453;28;20225;-61
2022/08/22 12:36:34;;;;;;;0.75;0.75;;;;;;;;;;10453637;28;20024;-60
2022/08/22 12:42:24;;;;;;;1.08;0.80;;;;;;;;;;10454471;28;20047;-61
2022/08/22 12:48:31;;;;;;;1.00;0.90;;;;;;;;;;10467802;28;20025;-61
2022/08/22 12:53:52;;;;;;;1.70;0.87;;;;;;;;;;10451089;28;20017;-60
2022/08/22 12:59:22;;;;;;;2.65;1.30;;;;;;;;;;10479470;28;20033;-61
2022/08/22 13:04:28;;;;;;;0.93;0.85;;;;;;;;;;10459646;28;20554;-61
2022/08/22 13:09:39;;;;;;;0.93;0.80;;;;;;;;;;10448630;28;20028;-60
2022/08/22 13:14:44;;;;;;;1.38;0.90;;;;;;;;;;10459685;28;20059;-61
2022/08/22 13:20:10;;;;;;;1.48;0.98;;;;;;;;;;10444250;28;20108;-61
2022/08/22 13:25:14;;;;;;;3.63;1.00;;;;;;;;;;10452846;28;20029;-61
2022/08/22 13:30:28;;;;;;;1.17;1.00;;;;;;;;;;10452912;28;20129;-61
2022/08/22 13:35:55;;;;;;;1.38;0.90;;;;;;;;;;10446262;28;20155;-61
2022/08/22 13:40:57;;;;;;;2.73;1.20;;;;;;;;;;10449004;28;20159;-58
2022/08/22 13:46:04;;;;;;;1.13;1.00;;;;;;;;;;10466359;28;20508;-60
2022/08/22 13:51:25;;;;;;;2.08;0.98;;;;;;;;;;10452019;28;20321;-61
2022/08/22 13:56:37;;;;;;;1.02;0.90;;;;;;;;;;10442706;28;20072;-61
2022/08/22 14:02:12;;;;;;;0.90;0.90;;;;;;;;;;10454558;28;20075;-59
2022/08/22 14:07:36;;;;;;;0.98;0.88;;;;;;;;;;10452934;28;20043;-61
2022/08/22 14:12:55;;;;;;;1.40;1.00;;;;;;;;;;10452410;28;20691;-60
2022/08/22 14:18:07;;;;;;;0.80;0.80;;;;;;;;;;10466372;28;20025;-59
2022/08/22 14:23:27;;;;;;;0.98;0.90;;;;;;;;;;10455412;28;20237;-61
2022/08/22 14:28:34;;;;;;;1.10;1.00;;;;;;;;;;10451488;28;20033;-60
2022/08/22 14:33:47;;;;;;;2.45;0.80;;;;;;;;;;10461888;28;20095;-60
2022/08/22 14:38:59;;;;;;;0.88;0.88;;;;;;;;;;10462076;28;20043;-60
2022/08/22 14:44:18;;;;;;;1.85;1.10;;;;;;;;;;10452278;28;20032;-60
2022/08/22 14:49:26;;;;;;;0.82;0.82;;;;;;;;;;10454299;28;20036;-61
2022/08/22 14:54:29;;;;;;;0.80;0.80;;;;;;;;;;10442073;28;20554;-61
2022/08/22 14:59:42;;;;;;;1.38;1.00;;;;;;;;;;10449121;28;20511;-60
2022/08/22 15:04:48;;;;;;;1.17;0.90;;;;;;;;;;10449736;28;20037;-59
2022/08/22 15:10:27;;;;;;;1.10;1.00;;;;;;;;;;10452806;28;20120;-60
2022/08/22 15:15:40;;;;;;;0.95;0.80;;;;;;;;;;10449328;28;20500;-56
2022/08/22 15:20:41;;;;;;;1.23;1.13;;;;;;;;;;10449703;28;20268;-58
2022/08/22 15:25:43;;;;;;;1.27;1.00;;;;;;;;;;10459155;28;20298;-60
2022/08/22 15:30:56;;;;;;;0.82;0.82;;;;;;;;;;10465444;28;20033;-60
2022/08/22 15:36:21;;;;;;;0.73;0.73;;;;;;;;;;10444029;28;20079;-61
2022/08/22 15:41:33;;;;;;;1.17;0.88;;;;;;;;;;10422837;28;20029;-60
2022/08/22 15:47:06;;;;;;;0.90;0.90;;;;;;;;;;10432925;28;20040;-60
2022/08/22 15:52:25;;;;;;;1.70;0.80;;;;;;;;;;10440411;28;20453;-60
2022/08/22 15:57:39;;;;;;;0.80;0.70;;;;;;;;;;10441991;28;20021;-61
2022/08/22 16:03:21;;;;;;;0.85;0.85;;;;;;;;;;10449449;28;20043;-60
2022/08/22 16:08:42;;;;;;;0.75;0.75;;;;;;;;;;10438351;28;20041;-61
2022/08/22 16:13:44;;;;;;;0.93;0.90;;;;;;;;;;10439805;28;20060;-61
2022/08/22 16:18:47;;;;;;;0.70;0.70;;;;;;;;;;10449555;28;20442;-60
2022/08/22 16:23:47;;;;;;;1.00;0.77;;;;;;;;;;10447776;28;20025;-58
2022/08/22 16:28:50;;;;;;;0.73;0.73;;;;;;;;;;10472038;28;20515;-61
2022/08/22 16:33:51;;;;;;;0.60;0.60;;;;;;;;;;10468862;28;20036;-60
2022/08/22 16:38:56;;;;;;;2.30;1.20;;;;;;;;;;10469054;28;20033;-60
2022/08/22 16:44:24;;;;;;;0.60;0.60;;;;;;;;;;10453145;28;20052;-61
2022/08/22 16:49:31;;;;;;;;;;;;;;;;;;10439224;28;20083;-61
2022/08/22 16:54:59;;;;;;;0.73;0.73;;;;;;;;;;10426284;28;19917;-59
2022/08/22 17:00:31;;;;;;;4.90;1.02;;;;;;;;;;10450306;28;20492;-59
2022/08/22 17:06:01;;;;;;;3.00;0.88;;;;;;;;;;10433990;28;20038;-60
2022/08/22 17:11:56;;;;;;;0.68;0.68;;;;;;;;;;10444003;28;20435;-62
2022/08/22 17:17:34;;;;;;;1.27;0.80;;;;;;;;;;10426818;28;20512;-61
2022/08/22 17:22:56;;;;;;;3.00;0.90;;;;;;;;;;10441004;28;20484;-61
2022/08/22 17:28:36;;;;;;;1.17;0.90;;;;;;;;;;10446373;28;20043;-60
2022/08/22 17:33:39;;;;;;;1.92;0.80;;;;;;;;;;10444556;28;20033;-61
2022/08/22 17:39:11;;;;;;;0.88;0.60;;;;;;;;;;10434652;28;20049;-59
2022/08/22 17:44:32;;;;;;;4.57;0.93;;;;;;;;;;10445865;28;20080;-60
2022/08/22 17:49:41;;;;;;;0.70;0.70;;;;;;;;;;10454282;28;20056;-60
2022/08/22 17:55:16;;;;;;;2.15;0.98;;;;;;;;;;10453038;28;20035;-61
2022/08/22 18:00:26;;;;;;;1.13;0.90;;;;;;;;;;10467425;28;20020;-60
2022/08/22 18:05:53;;;;;;;1.38;0.90;;;;;;;;;;10452391;28;20044;-61
2022/08/22 18:11:09;;;;;;;1.13;0.80;;;;;;;;;;10444379;28;20033;-61
2022/08/22 18:16:30;;;;;;;3.13;0.70;;;;;;;;;;10446113;28;20037;-59
2022/08/22 18:21:41;;;;;;;4.03;0.80;;;;;;;;;;10462712;28;20392;-61
2022/08/22 18:26:41;;;;;;;1.48;1.00;;;;;;;;;;10444072;28;20044;-53
2022/08/22 18:32:08;;;;;;;1.53;0.90;;;;;;;;;;10445652;28;20048;-53
2022/08/22 18:37:30;;;;;;;0.80;0.80;;;;;;;;;;10445618;28;20462;-61
2022/08/22 18:43:02;;;;;;;0.85;0.85;;;;;;;;;;10453875;28;20021;-59
2022/08/22 18:48:06;;;;;;;1.15;1.05;;;;;;;;;;10443594;28;20044;-61
2022/08/22 18:53:38;;;;;;;1.08;0.95;;;;;;;;;;10446446;28;20454;-61
2022/08/22 18:59:39;;;;;;;0.93;0.82;;;;;;;;;;10452422;28;20440;-57
2022/08/22 19:04:50;;;;;;;1.80;1.20;;;;;;;;;;10426473;28;20101;-57
2022/08/22 19:10:33;;;;;;;2.92;1.00;;;;;;;;;;10446000;28;20055;-59
2022/08/22 19:16:05;;;;;;;1.52;0.90;;;;;;;;;;10454450;28;20480;-54
2022/08/22 19:26:46;;;;;;;3.03;1.52;;;;;;;;;;10446010;28;20025;-60
2022/08/22 19:31:49;;;;;;;2.28;1.27;;;;;;;;;;10445630;28;20045;-61
2022/08/22 19:37:12;;;;;;;2.97;1.10;;;;;;;;;;10446272;28;20052;-60
2022/08/22 19:42:18;;;;;;;2.53;1.50;;;;;;;;;;10451000;28;20033;-59
2022/08/22 19:47:27;;;;;;;1.48;1.33;;;;;;;;;;10429764;28;20057;-57
2022/08/22 19:53:05;;;;;;;10.98;1.77;;;;;;;;;;10444540;28;20112;-63
2022/08/22 19:58:50;;;;;;;11.27;1.60;;;;;;;;;;10455020;28;20032;-58
2022/08/22 20:04:07;;;;;;;10.05;2.03;;;;;;;;;;10470949;28;20128;-59
2022/08/22 20:09:42;;;;;;;10.50;1.60;;;;;;;;;;10434145;28;20045;-61
2022/08/22 20:14:46;;;;;;;6.70;1.48;;;;;;;;;;10456886;28;20577;-61
2022/08/22 20:19:54;;;;;;;5.22;1.80;;;;;;;;;;10459907;28;20021;-62
2022/08/22 20:25:21;;;;;;;2.17;1.35;;;;;;;;;;10460467;28;20480;-58
2022/08/22 20:30:28;;;;;;;3.70;1.30;;;;;;;;;;10460915;28;20044;-61
2022/08/22 20:35:51;;;;;;;;;;;;;;;;;;10465209;28;20025;-61
2022/08/22 20:41:13;;;;;;;1.98;1.40;;;;;;;;;;10464159;28;19912;-60
2022/08/22 20:46:17;;;;;;;4.45;1.40;;;;;;;;;;10463256;28;20038;-61
2022/08/22 20:51:23;;;;;;;1.83;1.40;;;;;;;;;;10470836;28;20025;-60
2022/08/22 20:57:15;;;;;;;3.08;1.35;;;;;;;;;;10435732;28;20432;-61
2022/08/22 21:02:47;;;;;;;2.70;1.33;;;;;;;;;;10445935;28;20040;-62
2022/08/22 21:08:12;;;;;;;5.85;1.20;;;;;;;;;;10444876;28;20064;-62
2022/08/22 21:13:18;;;;;;;3.22;1.48;;;;;;;;;;10447414;28;20047;-60
2022/08/22 21:18:42;;;;;;;2.20;1.33;;;;;;;;;;10448275;28;20047;-62
2022/08/22 21:23:48;;;;;;;4.28;1.60;;;;;;;;;;10447955;28;20033;-62
2022/08/22 21:28:48;;;;;;;3.25;1.35;;;;;;;;;;10469330;28;20044;-61
2022/08/22 21:33:51;;;;;;;1.47;1.37;;;;;;;;;;10449725;28;20063;-62
2022/08/22 21:39:11;;;;;;;2.25;1.20;;;;;;;;;;10452692;28;20554;-56
2022/08/22 21:44:33;;;;;;;1.80;1.15;;;;;;;;;;10450337;28;20090;-52
2022/08/22 21:49:34;;;;;;;1.85;1.30;;;;;;;;;;10461836;28;20017;-54
2022/08/22 21:54:39;;;;;;;3.00;1.38;;;;;;;;;;10439049;28;20040;-52
2022/08/22 21:59:51;;;;;;;1.73;1.30;;;;;;;;;;10450431;28;20095;-59
2022/08/22 22:04:52;;;;;;;2.70;1.20;;;;;;;;;;10461868;28;20045;-60
2022/08/22 22:09:53;;;;;;;1.95;1.10;;;;;;;;;;10440521;28;20036;-55
2022/08/22 22:14:53;;;;;;;1.35;1.20;;;;;;;;;;10449301;28;20037;-60
2022/08/22 22:19:54;;;;;;;1.80;1.50;;;;;;;;;;10467409;28;20036;-59
2022/08/22 22:24:55;;;;;;;7.47;1.50;;;;;;;;;;10468987;28;20491;-57
2022/08/22 22:29:56;;;;;;;3.25;1.88;;;;;;;;;;10461644;28;20108;-59
2022/08/22 22:34:57;;;;;;;8.75;1.98;;;;;;;;;;10467624;28;20120;-54
2022/08/22 22:40:00;;;;;;;14.20;1.50;;;;;;;;;;10456014;28;20506;-59
2022/08/22 22:45:01;;;;;;;7.20;1.20;;;;;;;;;;10458688;28;20201;-57
2022/08/22 22:50:01;;;;;;;1.85;1.20;;;;;;;;;;10454374;28;20209;-59
2022/08/22 22:55:03;;;;;;;4.05;1.30;;;;;;;;;;10469607;28;20476;-50
2022/08/22 23:00:06;;;;;;;4.22;2.00;;;;;;;;;;10451851;28;20033;-48
2022/08/22 23:05:09;;;;;;;3.90;1.52;;;;;;;;;;10468652;28;20052;-48
2022/08/22 23:10:09;;;;;;;3.08;1.50;;;;;;;;;;10445460;28;20037;-48
2022/08/22 23:15:10;;;;;;;1.65;1.30;;;;;;;;;;10454222;28;20480;-53
2022/08/22 23:20:11;;;;;;;1.02;0.98;;;;;;;;;;10448314;28;20415;-48
2022/08/22 23:25:12;;;;;;;4.20;1.25;;;;;;;;;;10449463;28;20017;-49
2022/08/22 23:30:13;;;;;;;2.45;1.02;;;;;;;;;;10450435;28;20107;-58
2022/08/22 23:35:13;;;;;;;2.55;1.08;;;;;;;;;;10450612;28;20032;-53
2022/08/22 23:40:14;;;;;;;4.90;1.50;;;;;;;;;;10456553;28;20029;-52
2022/08/22 23:45:14;;;;;;;1.88;1.20;;;;;;;;;;10451275;28;20036;-55
2022/08/22 23:50:15;;;;;;;3.40;1.48;;;;;;;;;;10448373;28;20033;-54
2022/08/22 23:55:17;;;;;;;1.83;1.00;;;;;;;;;;10443311;28;20200;-52
